Aérodrome :
LOGIN :

S'inscrire | Disclaimer

   EN    FR    IT 

 










Légende :    VFR   VFR Marginal   IFR   IFR Intensif   IFR Très Intensif
Visi : 
Plafond : 
>= 8 km
>= 3000ft
5 à 8 km
1000 à 3000 ft
1500m à 5 km
500 à 1000 ft
800 à 1500m
200 à 500 ft
< 800m
< 200 ft
Symboles :   Orages  Brouillard  Fortes neiges  Fortes précipitations  Vent > 20 kt
SIGMETs :   Divers  Orages  Givrage  Turbulence  Onde Orograph.  Cendres Volcan.







- Altitude de l'aérodrome : 461 ft
- Code IATA : WIE


ETOU - Wiesbaden Army

DERNIER METAR :
  • 211556Z AUTO 00000KT 9999 FEW032 OVC048 04/00 A3006 RMK AO2 SLP188 T00371005 $

METARs EXPIRÉS :
  • 211456Z AUTO 27006KT 9999 BKN036 OVC044 04/00 A3005 RMK AO2 SLP184 T00391003 53010 $
  • 211436Z AUTO 28006KT 9999 BKN030 BKN036 04/00 A3005 RMK AO2 SLP184 $
  • 211426Z AUTO 27005KT 9999 BKN029 BKN036 OVC049 04/00 A3004 RMK AO2 CIG 029V050 SLP181 $
  • 211356Z AUTO 28006KT 9999 FEW021 FEW026 BKN048 04/00 A3004 RMK AO2 SLP181 T00380001 $
  • 211346Z AUTO 27005KT 9999 SCT023 BKN048 04/00 A3003 RMK AO2 SLP178 $

TAF AMD TAF ETOU
Valide du 21 à 12h jusqu'au 22 à 17h UTC


211254Z 2112/2217 32009KT 9999 BKN023 QNH3000INS
BECMG 2121/2122 17005KT 3200 -SN OVC004 620049 QNH2994INS
BECMG 2203/2204 17005KT 9000 -FZRA OVC010 690002 QNH2987INS
BECMG 2207/2208 19005KT 9000 -RA OVC010 620109 QNH2984INS
BECMG 2214/2215 30005KT 9999 NSW OVC020 620505 QNH2990INS TX05/2113Z TN00/2118Z LAST NO AMDS AFT 2112 NEXT 2203
Pas de NOTAMs connus pour ce terrain.



MET'MAP, la Météo Aéronautique d'un coup d'oeil ! - Copyright ORBIFLY Décembre 2007 - Disclaimer

ORBIFLY MET'MAP TEAM :

Programmation & Développement : Alexandra Zaïnal
Conception & Développement : Baudouin d'Aumeries
Co-Programmation & Développement : Marc-Olivier Méhu
Soutien technique & logistique : Manuel Goepfert

Contact : metmap@orbifly.com




SOURCES & CREDITS :

   NOAA